Center Strafford, New Hampshire
Current Conditions -  °F | °C
As of 6:51 AM on Monday 20 Oct 2014 (Local Time) from KDAW Reporting Station
Clear Clear  
Wind Chill: 37°   Ceiling: Unl
Heat Index: 37°   Visibility: 10mi
Dew Point: 25°   Wind: 3mph
Humidity: 62%   Direction: NA
Pressure: 29.97"   Gusts: NA
Location:  43.27°N, 71.13°W
Report Text: KDAW 201051Z AUTO VRB03KT 10SM CLR 03/M04 A2997 RMK AO2 SLP148 T00281039
Loading
Personal Weather Stations






























Interactive Weather Map
Tropical Storm Tracking
New forecast layout! Learn more

10-Day Weather Forecast

Advertisements
Track Severe Weather on mobile